Airfield :
LOGIN :

Register | Disclaimer

   EN    FR    IT 

 










Legend :    VFR   Marginal VFR   IFR   Intensive IFR   Very Intensive IFR
Visi :
Ceiling :
>= 8 km
>= 3000ft
5 to 8 km
1000 to 3000 ft
1500m to 5 km
500 to 1000 ft
800 to 1500m
200 to 500 ft
< 800m
< 200 ft
Symbols :   Thunderstorms  Fog  Heavy snow  Heavy precipitations  Wind > 20 kt
SIGMETs :     Misc.  Thunderstorms  Icing  Turbulence  Mountain Waves  Volcanic Ashes






- Airport Elevation : 78 ft
- IATA code : LED


ULLI - Pulkovo

CURRENT METAR :
  • 191830Z 24006MPS 9999 FEW009 SCT017CB OVC040 02/01 Q1003 R88/290050 NOSIG

EXPIRED METARs :
  • 191800Z 24006MPS 9999 -SHRA BKN016CB OVC040 02/01 Q1002 R88/290050 NOSIG
  • 191730Z 22004MPS 9999 BKN020CB OVC040 02/00 Q1002 R88/290050 NOSIG
  • 191700Z 22005MPS 200V260 9999 SCT020CB BKN040 02/00 Q1002 R88/290050 NOSIG
  • 191630Z 25005MPS 9999 -SHRA FEW009 BKN016CB OVC034 03/01 Q1002 R88/290050 NOSIG
  • 191600Z 25006MPS 9999 -SHRA FEW011 BKN015CB OVC034 03/01 Q1001 R88/290050 NOSIG

TAF TAF ULLI
Valid from the 19 at 18:00 until the 20 at 18:00 UTC


191657Z 1918/2018 23005G11MPS 9999 BKN011 BKN020
TEMPO 1918/2006 3100 -SHRA BKN007 BKN017CB
BECMG 1920/1922 27003MPS
TEMPO 2006/2018 3100 -SHSNRA BR BKN011 BKN015CB
BECMG 2010/2012 14003MPS



MET'MAP, your aeronautical weather chart ! - Copyright ORBIFLY December 2007 - Disclaimer

ORBIFLY MET'MAP TEAM :

Programming & Development : Alexandra Zaïnal
Concept & original design : Baudouin d'Aumeries
Assistance for programming : Marc-Olivier Méhu
Technical & hardware support : Manuel Goepfert

Contact : metmap@orbifly.com




SOURCES & CREDITS :

   NOAA